Disclaimer

    

CYCD

METAR CYCD 272300Z 12003KT 25SM SCT045 BKN150 12/06 A3018 RMK SC4AC3 SLP222=

METAR CYCD 272200Z 32003KT 310V010 25SM FEW030 OVC046 13/07 A3018 RMK SC2SC6 SLP220=

METAR CYCD 272100Z VRB02KT 25SM FEW035 BKN051 BKN120 12/08 A3016 RMK SC2SC4AC1 SLP215=

TAF CYCD 271738Z 2718/2804 VRB03KT P6SM BKN050 TEMPO 2718/2804 P6SM -SHRA SCT020 BKN050 BECMG 2719/2721 20010G20KT RMK NXT FCST BY 280000Z=

CYVR

METAR CYVR 272300Z 17011G16KT 25SM FEW020 SCT051 BKN060 BKN085 BKN240 12/07 A3019 RMK CU1SC3SC3AC1CI1 CU TR CI TR SLP224=

METAR CYVR 272200Z 17014KT 25SM FEW018 SCT054 BKN080 BKN100 BKN240 12/08 A3019 RMK CU1SC4AC2AC1CI1 CU TR CI TR SLP226=

METAR CYVR 272100Z 17015KT 25SM FEW016 BKN055 BKN090 BKN110 BKN240 12/08 A3018 RMK CU1SC5AC1AC1CI1 CU TR CI TR SLP221=

TAF CYVR 272039Z 2721/2824 18012G22KT P6SM SCT050 BKN120 TEMPO 2721/2723 P6SM -SHRA FEW020 BKN050 BECMG 2723/2801 18010KT
FM280500 12010KT P6SM BKN040 OVC100 TEMPO 2805/2808 5SM -RA BR SCT012 OVC030
FM280800 09010G20KT P6SM -RA SCT008 OVC030 TEMPO 2808/2824 3SM RA BR OVC008 RMK NXT FCST BY 280000Z=

CYXX

METAR CYXX 272300Z 20011KT 25SM FEW035 FEW050 BKN082 12/06 A3021 RMK CU1SC1AC6 CU TR SLP232=

METAR CYXX 272200Z 21012G19KT 20SM FEW033 SCT090 BKN220 13/07 A3019 RMK CU2AC2CI3 SLP227=

METAR CYXX 272100Z 19013KT 20SM FEW029 SCT041 BKN060 BKN110 BKN220 12/07 A3019 RMK CU1SC3SC2AC2CI1 CU TR CI TR SH DIST NE-E SLP227=

TAF CYXX 271738Z 2718/2818 18012G22KT P6SM SCT025 BKN050 TEMPO 2718/2724 P6SM -SHRA BKN020
FM280000 20010KT P6SM FEW030 SCT060 BKN160 BECMG 2800/2802 VRB03KT
FM280300 05005KT P6SM BKN040 OVC120 TEMPO 2807/2809 5SM -RA BR
FM280900 05005KT 6SM -RA BR SCT007 OVC025 TEMPO 2809/2818 2SM RA BR BKN007 BECMG 2809/2811 05010G20KT RMK NXT FCST BY 280000Z=

Supplemental information

Lower mainland ATIS: 1-877-517-2847

CZBB (Boundary Bay) current winds

Upper winds (Vancouver)

Data fromValid at300060009000
27120027180022122522-032523-08
27120028000025112519-022519-08
27120028120012161614+002449-01

NOTAMs

On October 10, 2019, NAV CANADA changed to the ICAO NOTAM format. They are now available only through Collaborative Flight Planning Services (CFPS) (plan.navcanada.ca). I'm working to update this site to pull in the relevant NOTAMs in the new format.